Aérodrome :
LOGIN :

S'inscrire | Disclaimer

   EN    FR    IT 

 










Légende :    VFR   VFR Marginal   IFR   IFR Intensif   IFR Très Intensif
Visi : 
Plafond : 
>= 8 km
>= 3000ft
5 à 8 km
1000 à 3000 ft
1500m à 5 km
500 à 1000 ft
800 à 1500m
200 à 500 ft
< 800m
< 200 ft
Symboles :   Orages  Brouillard  Fortes neiges  Fortes précipitations  Vent > 20 kt
SIGMETs :   Divers  Orages  Givrage  Turbulence  Onde Orograph.  Cendres Volcan.






- Altitude de l'aérodrome : 16 ft
- Code IATA : EAS


LESO - San Sebastian Fuenterrabia

DERNIER METAR :
  • 232100Z AUTO 24009KT 200V290 9000 -RA SCT014 BKN021 BKN030 14/14 Q1022 RERA

METARs EXPIRÉS :
  • 232030Z AUTO 22008KT 200V270 7000 RA VV013 15/14 Q1022
  • 232000Z AUTO 22006KT 170V260 5000 -RA BR BKN016 OVC028 15/14 Q1022
  • 231930Z 22007KT 200V260 8000 -RA FEW010 BKN017 OVC028 15/14 Q1022
  • 231900Z 23010KT 200V270 9999 -RA FEW010 SCT016 BKN024 15/14 Q1022
  • 231830Z 22008KT 180V250 7000 -RADZ SCT012 BKN025 15/14 Q1021

TAF TAF LESO
Valide du 23 à 18h jusqu'au 24 à 18h UTC


231700Z 2318/2418 26009KT 9000 SCT010 BKN020 TX20/2415Z TN14/2318Z
TEMPO 2318/2412 3000 RA SHRA BKN010 SCT025TCU
TEMPO 2318/2406 28016G27KT 1500 +SHRA TS BKN005 SCT020CB BKN025TCU



MET'MAP, la Météo Aéronautique d'un coup d'oeil ! - Copyright ORBIFLY Décembre 2007 - Disclaimer

ORBIFLY MET'MAP TEAM :

Programmation & Développement : Alexandra Zaïnal
Sur une idée originale de : Baudouin d'Aumeries
Assistance à la programmation : Marc-Olivier Méhu
Soutien technique & logistique : Manuel Goepfert

Contact : metmap@orbifly.com




SOURCES & CREDITS :

   NOAA